Durham, NH (03824)

8:38 PM EDT on July 07, 2015 (GMT -0400)
Edgewood Rd. | | Change Station
CLOSE
Current Station
Personal Weather Station
Location: Durham, NH
Elevation: 128 ft
Nearby Weather Stations

Elev 128 ft 43.15 °N, 70.93 °W | Updated 2 seconds ago

Mostly Cloudy
Mostly Cloudy
73.5 °F
Feels Like 73.5 °F
N
0.0
Wind Variable Wind from West
Gusts 0.0 mph

Today
High -- | Low -- °F
--% Chance of Precip.
Yesterday
High -- | Low -- °F
Precip. -- in
5:11 AM 8:25 PM
Waning Gibbous, 59% visible
Pressure 29.93 in
Visibility 10.0 miles
Clouds Few 3400 ft
Overcast 20000 ft
Dew Point 72 °F
Humidity 96%
Rainfall 0.27 in
Snow Depth Not available.
UV 0 out of 12
Pollen 1.60 out of 12
Air Quality Not available.
Flu Activity Not available.
METAR KPSM 072358Z 19007KT 10SM FEW034 OVC200 26/21 A2992 RMK AO2A SLP135 T02640208 10277 20250 56003

More Conditions Fewer Conditions

Pressure 29.93 in
Visibility 10.0 miles
Clouds Few 3400 ft
Overcast 20000 ft
Dew Point 72 °F
Humidity 96%
Rainfall 0.27 in
Snow Depth Not available.
UV 0 out of 12
Pollen 1.60 out of 12
Air Quality Not available.
Flu Activity Not available.
METAR KPSM 072358Z 19007KT 10SM FEW034 OVC200 26/21 A2992 RMK AO2A SLP135 T02640208 10277 20250 56003

More Conditions Fewer Conditions

10-Day Weather Forecast

×

Almanac

Astronomy

Jul. 07, 2015 Rise Set
Actual Time
Civil Twilight
Nautical Twilight
Astronomical Twilight
Moon
Length of Visible Light
Length of Day
Tomorrow will be .
, % of the Moon is Illuminated

Today's Extremes

State Highs State Lows

Community

WunderPhotos

Upload Photos

1,835,975 photos uploaded!

WunderBlogs® & News

Nearby

Air Quality

  Air Quality AQ Index Pollutant
Not available.

Snow Depth

Station Depth Elevation

Earthquake Activity

City Distance Mag. Time & Date
Minimum magnitude displayed is 2.5.

Coastal Water Temperatures

Place Temperature

Stations

Nearby Weather Stations

Station Location Temp. Windchill Dew Point Humidity Wind Precip. Elev Updated Type